首页
METAR-TAF:

METAR-TAF

机场 :

法布拉, 英格兰

纬度: 51-17N, 经度: 000-46W, 海拔: 65米

当前天气观测

该预报发布于14分钟前的08:50 UTC
风速6节,风向东转东南
温度 11°C
湿度 87%
气压 1006 hPa
能见度10公里或以上

METAR: EGLF 170850Z AUTO 11006KT 9999 FEW030/// 11/09 Q1006

时间: 10:04 (09:04 UTC)

预报

该预报发布于1小时和4分钟前的08:00 UTC
预报有效从17日的 09点(UTC)到 17日的 18点(UTC)
风速4节,风向多变
能见度10公里或以上
散云层高于3000英尺
成为
从 17日的 09点(UTC)到 17日的 12点(UTC)
风速10节,风向
几率 30% :
短暂存在
从 17日的 09点(UTC)到 17日的 11点(UTC)
能見度: 7000
阵雨
短暂存在
从 17日的 11点(UTC)到 17日的 18点(UTC)
能見度: 7000
阵雨
几率 30% :
短暂存在
从 17日的 11点(UTC)到 17日的 16点(UTC)
风速15节,风向南转西南,有时为25节阵风
能見度: 4000
多云层高于1400英尺
大阵雨

TAF: EGLF 170800Z 1709/1718 VRB04KT 9999 SCT030 BECMG 1709/1712 19010KT PROB30 TEMPO 1709/1711 7000 SHRA TEMPO 1711/1718 7000 SHRA PROB30 TEMPO 1711/1716 20015G25KT 4000 +SHRA BKN014

超过4000个机场的气象观测和天气预报(METAR&TAF报告)。

可查询的气象台以黄色和红色小点在地图上表示。

将鼠标移到小点上方,可查看气象台名称。

然后点击查看天气观测和预报。

如需切换地图:点击带黑十字的绿色按钮放大地图;点击带横线的绿色按钮缩小地图;或者点击绿色箭头查看邻近地区的地图。


METAR-TAF: